Terminal Aerodrome Forecast
Issued by NWS

Home | Current Version | Previous Version | Text Only | Print | Product List | Glossary On
Versions: 1 2 3 4 5 6 7 8 9 10 11 12 13 14 15 16 17 18 19 20 21 22 23 24 25 26 27 28 29 30 31 32 33 34 35 36 37
000
FTUS45 KGJT 291748
TAFRIL
TAF
KRIL 291748Z 2918/3018 VRB03KT 6SM -RA BR SCT060 OVC080
     FM292000 32007KT P6SM VCTS SCT080CB SCT100 BKN150
      TEMPO 2921/3001 VRB15G25KT 3SM +TSRA SCT030 OVC040CB
     FM300100 10008KT P6SM -TSRA SCT040CB OVC090
      TEMPO 3001/3005 VRB10G20KT 3SM TSRA SCT030 OVC040CB
     FM300500 14003KT P6SM VCSH SCT050 BKN070
     FM301200 VRB02KT P6SM SCT060 BKN090=

USA.gov is the U.S. government's official web portal to all federal, state and local government web resources and services.